createdAt,value
2023-03-12T00:00:43.863Z,3.07
2023-03-12T00:03:36.522Z,2.83
2023-03-12T00:06:11.001Z,2.86
2023-03-12T00:08:43.815Z,2.97
2023-03-12T00:11:18.346Z,3.06
2023-03-12T00:13:54.054Z,3.04
2023-03-12T00:16:27.146Z,3.02
2023-03-12T00:18:59.740Z,2.84
2023-03-12T00:21:34.508Z,2.86
2023-03-12T00:24:05.909Z,2.74
2023-03-12T00:26:38.423Z,2.74
2023-03-12T00:29:11.112Z,2.91
2023-03-12T00:31:43.503Z,2.61
2023-03-12T00:34:18.921Z,2.89
2023-03-12T00:36:51.556Z,2.97
2023-03-12T00:39:24.076Z,2.90
2023-03-12T00:41:56.489Z,2.98
2023-03-12T00:44:29.258Z,3.09
2023-03-12T00:47:02.087Z,2.85
2023-03-12T00:49:34.877Z,3.14
2023-03-12T00:52:07.963Z,3.02
2023-03-12T00:54:40.488Z,2.99
2023-03-12T00:57:13.014Z,3.10
2023-03-12T00:59:45.513Z,3.17
2023-03-12T01:02:18.603Z,3.21
2023-03-12T01:04:52.046Z,3.24
2023-03-12T01:07:24.800Z,3.64
2023-03-12T01:09:57.228Z,3.53
2023-03-12T01:12:29.656Z,3.58
2023-03-12T01:15:02.496Z,3.57
2023-03-12T01:17:35.192Z,3.66
2023-03-12T01:20:09.586Z,3.46
2023-03-12T01:22:42.109Z,3.56
2023-03-12T01:25:15.104Z,3.65
2023-03-12T01:27:48.228Z,3.64
2023-03-12T01:30:20.891Z,3.54
2023-03-12T01:32:54.408Z,3.42
2023-03-12T01:35:28.062Z,3.51
2023-03-12T01:38:00.786Z,3.32
2023-03-12T01:40:36.578Z,3.41
2023-03-12T01:43:29.414Z,3.65
2023-03-12T01:46:25.659Z,3.59
2023-03-12T01:49:03.452Z,3.61
2023-03-12T01:51:40.421Z,3.78
2023-03-12T01:54:18.093Z,3.35
2023-03-12T01:56:51.901Z,3.58
2023-03-12T01:59:28.507Z,3.68
2023-03-12T02:02:03.307Z,3.70
2023-03-12T02:04:37.843Z,3.65
2023-03-12T02:07:13.723Z,3.65
2023-03-12T02:09:48.932Z,3.73
2023-03-12T02:12:21.462Z,3.56
2023-03-12T02:14:54.436Z,3.48
2023-03-12T02:17:27.266Z,3.53
2023-03-12T02:20:08.398Z,3.71
2023-03-12T02:22:45.749Z,3.53
2023-03-12T02:25:35.930Z,3.48
2023-03-12T02:28:11.611Z,3.39
2023-03-12T02:30:47.145Z,3.48
2023-03-12T02:33:20.153Z,3.43
2023-03-12T02:35:53.307Z,3.43
2023-03-12T02:38:42.786Z,3.25
2023-03-12T02:41:20.486Z,3.36
2023-03-12T02:43:58.442Z,3.27
2023-03-12T02:46:33.763Z,3.29
2023-03-12T02:49:06.481Z,3.31
2023-03-12T02:51:38.887Z,3.38
2023-03-12T02:54:12.911Z,3.65
2023-03-12T02:56:46.162Z,3.55
2023-03-12T02:59:20.856Z,3.44
2023-03-12T03:01:58.000Z,3.59
2023-03-12T03:04:32.031Z,3.44
2023-03-12T03:07:04.502Z,3.51
2023-03-12T03:09:37.120Z,3.76
2023-03-12T03:12:10.535Z,3.76
2023-03-12T03:14:43.298Z,3.79
2023-03-12T03:17:16.284Z,3.48
2023-03-12T03:19:48.921Z,3.56
2023-03-12T03:22:22.275Z,3.55
2023-03-12T03:24:55.829Z,3.83
2023-03-12T03:27:28.618Z,3.84
2023-03-12T03:30:01.130Z,3.72
2023-03-12T03:32:34.253Z,3.63
2023-03-12T03:35:07.517Z,3.47
2023-03-12T03:37:40.678Z,3.12
2023-03-12T03:40:15.171Z,3.10
2023-03-12T03:42:48.381Z,3.20
2023-03-12T03:45:21.334Z,3.20
2023-03-12T03:47:54.633Z,2.89
2023-03-12T03:50:27.212Z,3.17
2023-03-12T03:52:59.909Z,3.52
2023-03-12T03:55:33.000Z,3.48
2023-03-12T03:58:05.602Z,3.35
2023-03-12T04:00:39.144Z,3.36
2023-03-12T04:03:11.595Z,3.40
2023-03-12T04:05:46.264Z,3.54
2023-03-12T04:08:18.787Z,3.36
2023-03-12T04:10:52.206Z,3.27
2023-03-12T04:13:25.323Z,3.38
2023-03-12T04:15:57.930Z,3.27
2023-03-12T04:18:30.608Z,3.28
2023-03-12T04:21:03.495Z,3.27
2023-03-12T04:23:36.649Z,3.30
2023-03-12T04:26:10.297Z,3.27
2023-03-12T04:28:42.820Z,3.24
2023-03-12T04:31:16.158Z,3.17
2023-03-12T04:33:54.028Z,3.30
2023-03-12T04:36:28.914Z,3.11
2023-03-12T04:39:02.228Z,3.07
2023-03-12T04:41:38.532Z,3.25
2023-03-12T04:44:17.292Z,3.30
2023-03-12T04:46:50.247Z,3.38
2023-03-12T04:49:24.936Z,3.34
2023-03-12T04:51:57.444Z,3.49
2023-03-12T04:54:31.936Z,3.45
2023-03-12T04:57:05.078Z,3.38
2023-03-12T04:59:37.758Z,3.40
2023-03-12T05:02:10.240Z,3.24
2023-03-12T05:04:42.813Z,3.36
2023-03-12T05:07:15.590Z,3.40
2023-03-12T05:09:48.041Z,3.49
2023-03-12T05:12:20.795Z,3.47
2023-03-12T05:14:53.636Z,3.49
2023-03-12T05:17:26.484Z,3.58
2023-03-12T05:19:58.989Z,3.50
2023-03-12T05:22:34.445Z,3.39
2023-03-12T05:25:08.869Z,3.45
2023-03-12T05:27:41.504Z,3.52
2023-03-12T05:30:16.259Z,3.44
2023-03-12T05:32:51.360Z,3.53
2023-03-12T05:35:24.355Z,3.52
2023-03-12T05:37:57.529Z,3.49
2023-03-12T05:40:30.763Z,3.45
2023-03-12T05:43:03.964Z,3.40
2023-03-12T05:45:37.029Z,3.40
2023-03-12T05:48:10.402Z,3.42
2023-03-12T05:50:43.155Z,3.45
2023-03-12T05:53:15.998Z,3.41
2023-03-12T05:55:48.723Z,3.29
2023-03-12T05:58:21.810Z,3.40
2023-03-12T06:00:54.572Z,3.33
2023-03-12T06:03:27.196Z,3.38
2023-03-12T06:06:01.190Z,3.45
2023-03-12T06:08:33.885Z,3.38
2023-03-12T06:11:06.629Z,3.41
2023-03-12T06:13:39.897Z,3.57
2023-03-12T06:16:20.073Z,3.57
2023-03-12T06:18:56.120Z,3.54
2023-03-12T06:21:31.654Z,3.56
2023-03-12T06:24:04.774Z,3.48
2023-03-12T06:26:47.571Z,3.43
2023-03-12T06:29:20.533Z,3.53
2023-03-12T06:31:53.346Z,3.57
2023-03-12T06:34:25.990Z,3.49
2023-03-12T06:36:58.873Z,3.53
2023-03-12T06:39:31.533Z,3.59
2023-03-12T06:42:04.136Z,3.60
2023-03-12T06:44:37.259Z,3.60
2023-03-12T06:47:10.181Z,3.62
2023-03-12T06:49:42.692Z,3.63
2023-03-12T06:52:21.611Z,3.60
2023-03-12T06:54:54.275Z,3.50
2023-03-12T06:57:26.723Z,3.59
2023-03-12T06:59:59.197Z,3.67
2023-03-12T07:02:31.752Z,3.71
2023-03-12T07:05:04.800Z,3.83
2023-03-12T07:07:38.925Z,3.81
2023-03-12T07:10:13.608Z,3.77
2023-03-12T07:12:46.107Z,3.65
2023-03-12T07:15:19.254Z,3.69
2023-03-12T07:17:52.218Z,3.81
2023-03-12T07:20:24.986Z,3.66
2023-03-12T07:22:57.469Z,3.72
2023-03-12T07:25:30.280Z,3.60
2023-03-12T07:28:03.115Z,3.80
2023-03-12T07:30:36.570Z,3.85
2023-03-12T07:33:11.532Z,3.79
2023-03-12T07:35:42.672Z,3.93
2023-03-12T07:38:15.449Z,3.97
2023-03-12T07:40:51.467Z,3.89
2023-03-12T07:43:24.557Z,4.07
2023-03-12T07:46:00.369Z,4.08
2023-03-12T07:48:33.625Z,4.24
2023-03-12T07:51:07.044Z,4.12
2023-03-12T07:53:39.713Z,4.06
2023-03-12T07:56:12.569Z,4.09
2023-03-12T07:58:46.575Z,4.22
2023-03-12T08:01:19.238Z,4.09
2023-03-12T08:03:52.096Z,4.17
2023-03-12T08:06:25.301Z,4.20
2023-03-12T08:08:58.347Z,4.23
2023-03-12T08:11:31.276Z,4.33
2023-03-12T08:14:03.965Z,4.31
2023-03-12T08:16:36.806Z,4.43
2023-03-12T08:19:09.977Z,4.44
2023-03-12T08:21:42.733Z,4.59
2023-03-12T08:24:15.689Z,4.55
2023-03-12T08:26:48.815Z,4.50
2023-03-12T08:29:21.562Z,4.55
2023-03-12T08:32:04.547Z,4.72
2023-03-12T08:34:38.077Z,4.88
2023-03-12T08:37:10.591Z,4.79
2023-03-12T08:39:43.268Z,4.83
2023-03-12T08:42:16.276Z,4.83
2023-03-12T08:44:49.100Z,4.78
2023-03-12T08:47:22.108Z,4.89
2023-03-12T08:49:56.286Z,4.99
2023-03-12T08:52:29.273Z,4.89
2023-03-12T08:55:01.988Z,5.07
2023-03-12T08:57:34.645Z,5.11
2023-03-12T09:00:14.919Z,5.18
2023-03-12T09:02:50.090Z,5.23
2023-03-12T09:05:23.351Z,5.16
2023-03-12T09:07:55.798Z,5.27
2023-03-12T09:10:30.891Z,5.35
2023-03-12T09:13:04.667Z,5.40
2023-03-12T09:15:37.453Z,5.34
2023-03-12T09:18:10.533Z,5.48
2023-03-12T09:20:44.889Z,5.46
2023-03-12T09:23:17.602Z,5.38
2023-03-12T09:25:50.671Z,5.27
2023-03-12T09:28:23.716Z,5.42
2023-03-12T09:30:56.285Z,5.68
2023-03-12T09:33:29.102Z,5.68
2023-03-12T09:36:02.700Z,5.68
2023-03-12T09:38:35.845Z,5.86
2023-03-12T09:41:14.252Z,5.77
2023-03-12T09:43:54.287Z,5.80
2023-03-12T09:46:32.580Z,5.81
2023-03-12T09:49:12.310Z,5.80
2023-03-12T09:51:49.404Z,6.06
2023-03-12T09:54:28.732Z,6.08
2023-03-12T09:57:05.092Z,6.06
2023-03-12T09:59:38.020Z,6.20
2023-03-12T10:02:28.117Z,6.36
2023-03-12T10:05:06.544Z,6.36
2023-03-12T10:07:43.911Z,6.26
2023-03-12T10:10:31.325Z,6.44
2023-03-12T10:13:18.128Z,6.67
2023-03-12T10:16:03.190Z,6.76
2023-03-12T10:18:41.240Z,6.68
2023-03-12T10:21:26.141Z,6.91
2023-03-12T10:24:15.195Z,7.02
2023-03-12T10:26:59.021Z,6.94
2023-03-12T10:29:35.410Z,6.94
2023-03-12T10:32:16.603Z,7.03
2023-03-12T10:34:52.276Z,7.01
2023-03-12T10:37:28.104Z,6.96
2023-03-12T10:40:02.311Z,7.14
2023-03-12T10:42:35.089Z,7.07
2023-03-12T10:45:22.658Z,7.19
2023-03-12T10:47:58.791Z,7.08
2023-03-12T10:50:32.483Z,7.23
2023-03-12T10:53:23.958Z,7.30
2023-03-12T10:56:04.843Z,7.41
2023-03-12T10:58:40.073Z,7.46
2023-03-12T11:01:23.002Z,7.53
2023-03-12T11:04:10.423Z,7.32
2023-03-12T11:06:44.052Z,7.37
2023-03-12T11:09:21.470Z,7.35
2023-03-12T11:11:54.003Z,7.23
2023-03-12T11:14:29.008Z,7.23
2023-03-12T11:17:25.305Z,7.25
2023-03-12T11:19:58.580Z,7.28
2023-03-12T11:22:34.153Z,7.35
2023-03-12T11:25:21.873Z,7.41
2023-03-12T11:27:58.002Z,7.52
2023-03-12T11:30:38.156Z,7.45
2023-03-12T11:33:12.505Z,7.54
2023-03-12T11:35:58.593Z,7.45
2023-03-12T11:38:38.045Z,7.49
2023-03-12T11:41:24.659Z,7.50
2023-03-12T11:44:18.493Z,7.54
2023-03-12T11:47:04.633Z,7.62
2023-03-12T11:49:52.809Z,7.60
2023-03-12T11:52:33.751Z,7.57
2023-03-12T11:55:17.814Z,7.52
2023-03-12T11:58:03.859Z,7.76
2023-03-12T12:00:43.059Z,7.65
2023-03-12T12:03:57.659Z,7.92
2023-03-12T12:06:40.697Z,7.82
2023-03-12T12:09:22.824Z,7.91
2023-03-12T12:12:09.852Z,7.92
2023-03-12T12:14:58.791Z,7.99
2023-03-12T12:17:45.374Z,7.99
2023-03-12T12:20:30.170Z,8.19
2023-03-12T12:23:16.020Z,8.21
2023-03-12T12:26:13.772Z,8.11
2023-03-12T12:29:02.553Z,8.58
2023-03-12T12:31:44.506Z,8.67
2023-03-12T12:34:55.813Z,8.67
2023-03-12T12:37:39.037Z,8.64
2023-03-12T12:40:23.862Z,8.68
2023-03-12T12:43:02.750Z,8.92
2023-03-12T12:45:39.159Z,9.02
2023-03-12T12:48:15.922Z,8.73
2023-03-12T12:50:51.473Z,8.86
2023-03-12T12:53:27.915Z,8.92
2023-03-12T12:56:10.460Z,8.87
2023-03-12T12:59:05.053Z,8.49
2023-03-12T13:01:40.102Z,8.62
2023-03-12T13:04:18.550Z,8.76
2023-03-12T13:07:04.409Z,8.75
2023-03-12T13:09:43.478Z,8.66
2023-03-12T13:12:26.872Z,8.62
2023-03-12T13:15:00.344Z,8.47
2023-03-12T13:17:35.179Z,8.49
2023-03-12T13:20:22.677Z,8.50
2023-03-12T13:23:09.984Z,8.67
2023-03-12T13:25:56.949Z,8.56
2023-03-12T13:28:42.012Z,8.73
2023-03-12T13:31:39.276Z,8.77
2023-03-12T13:34:52.777Z,8.67
2023-03-12T13:37:56.936Z,8.39
2023-03-12T13:41:03.143Z,8.31
2023-03-12T13:43:54.650Z,8.46
2023-03-12T13:46:46.026Z,8.50
2023-03-12T13:49:21.597Z,8.58
2023-03-12T13:52:02.610Z,8.69
2023-03-12T13:54:42.988Z,8.66
2023-03-12T13:57:26.369Z,8.51
2023-03-12T13:59:59.802Z,8.55
2023-03-12T14:02:35.850Z,8.64
2023-03-12T14:05:11.883Z,8.60
2023-03-12T14:08:16.454Z,8.40
2023-03-12T14:11:04.643Z,8.33
2023-03-12T14:14:07.913Z,8.44
2023-03-12T14:16:46.034Z,8.40
2023-03-12T14:19:21.517Z,8.41
2023-03-12T14:21:55.993Z,8.15
2023-03-12T14:24:33.027Z,8.14
2023-03-12T14:27:12.646Z,8.11
2023-03-12T14:29:51.195Z,8.04
2023-03-12T14:32:28.133Z,7.96
2023-03-12T14:35:09.627Z,7.88
2023-03-12T14:37:45.457Z,7.70
2023-03-12T14:40:26.888Z,7.63
2023-03-12T14:43:02.803Z,7.74
2023-03-12T14:45:40.899Z,7.87
2023-03-12T14:48:14.450Z,7.90
2023-03-12T14:50:48.690Z,7.80
2023-03-12T14:53:25.976Z,7.64
2023-03-12T14:56:13.665Z,7.81
2023-03-12T14:58:51.280Z,7.67
2023-03-12T15:01:27.140Z,7.85
2023-03-12T15:04:02.494Z,7.82
2023-03-12T15:06:36.953Z,7.92
2023-03-12T15:09:16.064Z,7.92
2023-03-12T15:11:55.639Z,7.89
2023-03-12T15:14:31.446Z,7.98
2023-03-12T15:17:04.971Z,7.95
2023-03-12T15:19:40.932Z,7.97
2023-03-12T15:22:18.246Z,7.81
2023-03-12T15:24:51.133Z,7.71
2023-03-12T15:27:34.788Z,7.85
2023-03-12T15:30:28.177Z,7.89
2023-03-12T15:33:24.634Z,7.82
2023-03-12T15:36:06.478Z,7.78
2023-03-12T15:38:45.788Z,7.82
2023-03-12T15:41:22.974Z,7.76
2023-03-12T15:43:58.561Z,7.78
2023-03-12T15:46:31.635Z,7.69
2023-03-12T15:49:04.261Z,7.78
2023-03-12T15:51:40.701Z,7.77
2023-03-12T15:54:29.478Z,7.65
2023-03-12T15:57:23.165Z,7.63
2023-03-12T16:00:12.069Z,7.55
2023-03-12T16:02:52.130Z,7.54
2023-03-12T16:05:26.812Z,7.62
2023-03-12T16:08:01.850Z,7.59
2023-03-12T16:10:39.839Z,7.68
2023-03-12T16:13:17.529Z,7.68
2023-03-12T16:15:50.122Z,7.62
2023-03-12T16:18:24.540Z,7.65
2023-03-12T16:20:57.028Z,7.66
2023-03-12T16:23:29.640Z,7.65
2023-03-12T16:26:03.481Z,7.65
2023-03-12T16:28:37.048Z,7.50
2023-03-12T16:31:15.209Z,7.56
2023-03-12T16:33:47.957Z,7.56
2023-03-12T16:36:20.831Z,7.44
2023-03-12T16:38:53.771Z,7.48
2023-03-12T16:41:26.397Z,7.47
2023-03-12T16:44:00.620Z,7.45
2023-03-12T16:46:34.157Z,7.49
2023-03-12T16:49:06.911Z,7.53
2023-03-12T16:51:40.053Z,7.51
2023-03-12T16:54:12.804Z,7.50
2023-03-12T16:56:48.319Z,7.48
2023-03-12T16:59:27.503Z,7.49
2023-03-12T17:02:00.116Z,7.43
2023-03-12T17:04:32.621Z,7.38
2023-03-12T17:07:05.381Z,7.34
2023-03-12T17:09:38.005Z,7.38
2023-03-12T17:12:19.771Z,7.32
2023-03-12T17:14:52.963Z,7.37
2023-03-12T17:17:25.544Z,7.38
2023-03-12T17:20:00.465Z,7.33
2023-03-12T17:22:33.704Z,7.34
2023-03-12T17:25:07.044Z,7.27
2023-03-12T17:27:39.517Z,7.27
2023-03-12T17:30:14.716Z,7.29
2023-03-12T17:32:47.276Z,7.30
2023-03-12T17:35:20.954Z,7.30
2023-03-12T17:37:53.577Z,7.28
2023-03-12T17:40:27.080Z,7.18
2023-03-12T17:43:00.178Z,7.28
2023-03-12T17:45:33.132Z,7.28
2023-03-12T17:48:05.756Z,7.27
2023-03-12T17:50:38.821Z,7.19
2023-03-12T17:53:12.159Z,7.22
2023-03-12T17:55:44.766Z,7.25
2023-03-12T17:58:17.333Z,7.19
2023-03-12T18:00:50.216Z,7.14
2023-03-12T18:03:22.633Z,7.20
2023-03-12T18:05:55.794Z,7.24
2023-03-12T18:08:29.390Z,7.17
2023-03-12T18:11:03.169Z,7.22
2023-03-12T18:13:35.848Z,7.14
2023-03-12T18:16:09.565Z,7.13
2023-03-12T18:18:42.384Z,7.19
2023-03-12T18:21:14.949Z,7.24
2023-03-12T18:23:47.366Z,7.22
2023-03-12T18:26:19.838Z,7.02
2023-03-12T18:28:53.934Z,7.02
2023-03-12T18:31:27.108Z,7.00
2023-03-12T18:34:00.218Z,7.12
2023-03-12T18:36:33.010Z,7.16
2023-03-12T18:39:06.566Z,7.09
2023-03-12T18:41:41.952Z,7.12
2023-03-12T18:44:15.057Z,7.00
2023-03-12T18:46:50.949Z,6.91
2023-03-12T18:49:23.962Z,6.83
2023-03-12T18:51:56.794Z,6.80
2023-03-12T18:54:31.231Z,6.90
2023-03-12T18:57:02.383Z,6.94
2023-03-12T18:59:34.955Z,6.88
2023-03-12T19:02:08.045Z,6.94
2023-03-12T19:04:40.711Z,6.97
2023-03-12T19:07:13.801Z,7.03
2023-03-12T19:09:46.402Z,7.04
2023-03-12T19:12:19.135Z,7.01
2023-03-12T19:14:52.035Z,7.04
2023-03-12T19:17:25.119Z,7.08
2023-03-12T19:19:57.776Z,7.12
2023-03-12T19:22:30.402Z,6.99
2023-03-12T19:25:03.254Z,6.97
2023-03-12T19:27:35.737Z,7.05
2023-03-12T19:30:10.828Z,7.12
2023-03-12T19:32:44.719Z,7.15
2023-03-12T19:35:18.179Z,7.19
2023-03-12T19:37:50.784Z,7.23
2023-03-12T19:40:23.268Z,7.21
2023-03-12T19:42:55.846Z,7.21
2023-03-12T19:45:28.623Z,7.21
2023-03-12T19:48:01.480Z,7.17
2023-03-12T19:50:33.970Z,7.13
2023-03-12T19:53:06.596Z,7.13
2023-03-12T19:55:39.338Z,7.16
2023-03-12T19:58:12.129Z,7.09
2023-03-12T20:00:44.943Z,7.04
2023-03-12T20:03:17.455Z,7.00
2023-03-12T20:05:50.555Z,7.13
2023-03-12T20:08:26.488Z,6.99
2023-03-12T20:11:06.134Z,6.74
2023-03-12T20:13:39.541Z,6.70
2023-03-12T20:16:14.085Z,6.58
2023-03-12T20:18:46.982Z,6.58
2023-03-12T20:21:19.419Z,6.70
2023-03-12T20:23:51.908Z,6.74
2023-03-12T20:26:24.703Z,6.72
2023-03-12T20:28:57.180Z,6.80
2023-03-12T20:31:29.751Z,6.76
2023-03-12T20:34:02.472Z,6.81
2023-03-12T20:36:35.112Z,6.86
2023-03-12T20:39:07.760Z,6.84
2023-03-12T20:41:40.310Z,6.80
2023-03-12T20:44:12.997Z,6.59
2023-03-12T20:46:46.012Z,6.68
2023-03-12T20:49:18.897Z,6.72
2023-03-12T20:51:51.533Z,6.66
2023-03-12T20:54:24.022Z,6.71
2023-03-12T20:56:56.897Z,6.73
2023-03-12T20:59:29.895Z,6.71
2023-03-12T21:02:02.558Z,6.66
2023-03-12T21:04:35.206Z,6.66
2023-03-12T21:07:07.724Z,6.74
2023-03-12T21:09:40.211Z,6.78
2023-03-12T21:12:12.746Z,6.70
2023-03-12T21:14:45.401Z,6.71
2023-03-12T21:17:18.160Z,6.59
2023-03-12T21:19:51.309Z,6.56
2023-03-12T21:22:23.848Z,6.57
2023-03-12T21:24:56.242Z,6.58
2023-03-12T21:27:35.830Z,6.50
2023-03-12T21:30:17.758Z,6.45
2023-03-12T21:32:50.448Z,6.29
2023-03-12T21:35:23.003Z,6.08
2023-03-12T21:37:56.840Z,6.30
2023-03-12T21:40:29.573Z,6.31
2023-03-12T21:43:02.024Z,6.16
2023-03-12T21:45:35.290Z,6.21
2023-03-12T21:48:08.709Z,6.17
2023-03-12T21:50:41.385Z,6.32
2023-03-12T21:53:23.541Z,6.36
2023-03-12T21:56:01.490Z,6.33
2023-03-12T21:58:35.195Z,6.26
2023-03-12T22:01:10.787Z,6.26
2023-03-12T22:03:44.771Z,6.31
2023-03-12T22:06:18.041Z,6.28
2023-03-12T22:08:52.396Z,6.28
2023-03-12T22:11:25.203Z,6.23
2023-03-12T22:13:57.830Z,6.24
2023-03-12T22:16:30.423Z,6.23
2023-03-12T22:19:03.116Z,6.23
2023-03-12T22:21:36.086Z,6.19
2023-03-12T22:24:10.318Z,6.11
2023-03-12T22:26:42.897Z,6.10
2023-03-12T22:29:15.708Z,6.01
2023-03-12T22:31:48.130Z,5.97
2023-03-12T22:34:20.687Z,6.00
2023-03-12T22:36:53.029Z,6.07
2023-03-12T22:39:25.604Z,5.99
2023-03-12T22:41:58.089Z,5.96
2023-03-12T22:44:30.576Z,5.95
2023-03-12T22:47:03.099Z,5.87
2023-03-12T22:49:35.712Z,5.87
2023-03-12T22:52:10.272Z,5.89
2023-03-12T22:54:42.798Z,5.98
2023-03-12T22:57:15.392Z,5.96
2023-03-12T22:59:49.501Z,5.84
2023-03-12T23:02:21.954Z,5.84
2023-03-12T23:04:54.695Z,5.93
2023-03-12T23:07:27.052Z,5.94
2023-03-12T23:09:59.605Z,5.94
2023-03-12T23:12:32.783Z,5.85
2023-03-12T23:15:05.475Z,5.73
2023-03-12T23:17:38.240Z,5.94
2023-03-12T23:20:13.647Z,5.98
2023-03-12T23:22:46.343Z,5.88
2023-03-12T23:25:19.138Z,5.91
2023-03-12T23:27:51.923Z,5.94
2023-03-12T23:30:24.535Z,5.84
2023-03-12T23:32:56.982Z,5.90
2023-03-12T23:35:31.816Z,5.80
2023-03-12T23:38:06.185Z,5.93
2023-03-12T23:40:38.612Z,5.69
2023-03-12T23:43:11.008Z,5.63
2023-03-12T23:45:43.796Z,5.61
2023-03-12T23:48:16.453Z,5.57
2023-03-12T23:50:51.756Z,5.68
2023-03-12T23:53:24.418Z,5.70
2023-03-12T23:56:02.561Z,5.84
2023-03-12T23:58:37.733Z,5.96
